Thursday, June 29, 2017, 4:57 AM EDT
Back to Local

KLBE, Latrobe / Westmorland

Location: Latrobe, PA, United States Lat: 40.283
Local Time: 4:57 AM EDT ( 8:57 GMT) Lon: -79.4
Time Zone: US/Eastern Elev: 1184 ft

Show me the last for .
Show Coded

Time T Td Feel RH Dir Speed Gust Alt SLP Vis Weather Sky Remarks
2017-06-29 04:35 54 54 - 100 - Calm - 30.10 - 10 CLR None
2017-06-29 04:15 55 55 - 100 - Calm - 30.10 - 10 CLR None
2017-06-29 03:55 55 54 - 93 - Calm - 30.09 - 10 CLR None
2017-06-29 03:35 55 54 - 93 - Calm - 30.09 - 10 CLR None
2017-06-29 03:15 55 54 - 93 - Calm - 30.09 - 10 CLR None
2017-06-29 02:55 57 55 - 93 200° 3 - 30.10 - 10 CLR None
2017-06-29 02:35 55 55 - 100 - Calm - 30.10 - 10 CLR None
2017-06-29 02:15 55 55 - 100 - Calm - 30.10 - 10 CLR None
2017-06-29 01:55 55 55 - 100 - Calm - 30.11 - 10 CLR None
2017-06-29 01:35 55 55 - 100 - Calm - 30.11 - 10 CLR None
2017-06-29 01:15 54 54 - 100 - Calm - 30.12 - 10 CLR None
2017-06-29 00:55 55 55 - 100 - Calm - 30.11 - 10 CLR None
2017-06-29 00:35 54 54 - 100 - Calm - 30.11 - 10 CLR None
2017-06-29 00:15 55 55 - 100 - Calm - 30.10 - 10 CLR None
2017-06-28 23:55 55 55 - 100 - Calm - 30.11 - 10 CLR None
2017-06-28 23:35 57 55 - 93 - Calm - 30.12 - 10 CLR None
2017-06-28 23:15 57 54 - 87 - Calm - 30.11 - 10 CLR None
2017-06-28 22:55 59 55 - 87 - Calm - 30.11 - 10 CLR None
2017-06-28 22:35 59 55 - 87 - Calm - 30.12 - 10 CLR None
2017-06-28 22:15 61 54 - 77 - Calm - 30.12 - 10 CLR None
2017-06-28 21:47 61 55 - 82 - Calm - 30.12 - 10 CLR None
2017-06-28 20:45 68 55 - 64 210° 6 - 30.12 - 10 SCT200 None
2017-06-28 19:55 70 52 - 52 220° 6 - 30.12 - 10 SCT150 None
2017-06-28 18:50 72 50 76 46 220° 7 - 30.13 - 10 BKN150 None
2017-06-28 17:50 73 52 76 46 240° 12 - 30.14 - 10 BKN150 None
2017-06-28 16:58 73 50 76 43 260° 13 - 30.16 - 10 BKN250 None
2017-06-28 15:50 73 50 76 43 270° 13 - 30.17 - 10 BKN250 None
2017-06-28 14:45 72 46 75 40 230° 9 - 30.18 - 15 BKN250 None
2017-06-28 13:50 72 48 76 43 220° 12 - 30.20 - 20 FEW050 BKN200 None
2017-06-28 12:50 72 46 75 40 230° 7 - 30.22 - 20 SCT050 None
2017-06-28 11:50 68 48 - 49 220° 7 - 30.21 - 20 SCT060 None
2017-06-28 10:50 68 50 - 52 240° 12 - 30.22 - 10 CLR None
2017-06-28 09:50 64 52 - 63 240° 14 - 30.23 - 10 CLR None
2017-06-28 08:50 61 54 - 77 240° 12 - 30.21 - 10 CLR None
2017-06-28 07:50 54 54 - 100 - Calm - 30.19 - 10 CLR None
2017-06-28 06:50 50 50 - 100 - Calm - 30.19 - 10 CLR None
2017-06-28 05:55 46 46 - 100 - Calm - 30.17 - 10 CLR None
2017-06-28 05:35 46 46 - 100 - Calm - 30.17 - 10 CLR None
2017-06-28 05:15 48 48 - 100 - Calm - 30.16 - 10 CLR None

Support USWX by starting your Amazon purchase here.